sensor_id;sensor_type;location;lat;lon;timestamp;pressure;altitude;pressure_sealevel;temperature;humidity
15314;BME280;7757;52.626;4.746;2023-03-20T00:00:24;101709.03;;;16.03;60.40
15314;BME280;7757;52.626;4.746;2023-03-20T00:03:12;101705.13;;;16.06;60.27
15314;BME280;7757;52.626;4.746;2023-03-20T00:05:58;101716.94;;;16.05;60.32
15314;BME280;7757;52.626;4.746;2023-03-20T00:08:44;101700.75;;;16.05;60.64
15314;BME280;7757;52.626;4.746;2023-03-20T00:11:32;101700.94;;;16.03;60.46
15314;BME280;7757;52.626;4.746;2023-03-20T00:14:20;101699.06;;;16.04;60.71
15314;BME280;7757;52.626;4.746;2023-03-20T00:17:10;101697.22;;;16.04;60.68
15314;BME280;7757;52.626;4.746;2023-03-20T00:20:01;101703.84;;;16.02;60.25
15314;BME280;7757;52.626;4.746;2023-03-20T00:22:47;101712.78;;;16.02;60.63
15314;BME280;7757;52.626;4.746;2023-03-20T00:25:33;101730.84;;;16.02;60.90
15314;BME280;7757;52.626;4.746;2023-03-20T00:28:29;101744.31;;;16.02;60.63
15314;BME280;7757;52.626;4.746;2023-03-20T00:31:22;101751.41;;;16.03;60.31
15314;BME280;7757;52.626;4.746;2023-03-20T00:34:11;101747.22;;;16.00;60.66
15314;BME280;7757;52.626;4.746;2023-03-20T00:37:01;101730.84;;;16.02;60.62
15314;BME280;7757;52.626;4.746;2023-03-20T00:39:46;101732.69;;;16.01;60.82
15314;BME280;7757;52.626;4.746;2023-03-20T00:42:32;101738.94;;;16.02;60.47
15314;BME280;7757;52.626;4.746;2023-03-20T00:45:18;101732.69;;;16.01;60.48
15314;BME280;7757;52.626;4.746;2023-03-20T00:48:05;101732.91;;;16.00;61.05
15314;BME280;7757;52.626;4.746;2023-03-20T00:50:52;101732.25;;;15.98;60.91
15314;BME280;7757;52.626;4.746;2023-03-20T00:53:37;101734.94;;;15.98;60.54
15314;BME280;7757;52.626;4.746;2023-03-20T00:56:30;101729.13;;;15.94;60.44
15314;BME280;7757;52.626;4.746;2023-03-20T00:59:19;101735.16;;;15.96;60.55
15314;BME280;7757;52.626;4.746;2023-03-20T01:02:07;101742.22;;;15.97;60.80
15314;BME280;7757;52.626;4.746;2023-03-20T01:04:54;101742.19;;;15.91;60.65
15314;BME280;7757;52.626;4.746;2023-03-20T01:07:43;101759.63;;;15.95;60.55
15314;BME280;7757;52.626;4.746;2023-03-20T01:10:32;101750.31;;;15.97;60.35
15314;BME280;7757;52.626;4.746;2023-03-20T01:13:19;101739.91;;;15.94;60.46
15314;BME280;7757;52.626;4.746;2023-03-20T01:16:11;101738.88;;;15.95;60.76
15314;BME280;7757;52.626;4.746;2023-03-20T01:19:01;101745.97;;;15.96;60.66
15314;BME280;7757;52.626;4.746;2023-03-20T01:21:47;101739.91;;;15.94;61.04
15314;BME280;7757;52.626;4.746;2023-03-20T01:24:34;101755.06;;;15.95;60.73
15314;BME280;7757;52.626;4.746;2023-03-20T01:27:19;101749.06;;;15.93;61.20
15314;BME280;7757;52.626;4.746;2023-03-20T01:30:15;101747.19;;;15.94;60.73
15314;BME280;7757;52.626;4.746;2023-03-20T01:33:05;101747.38;;;15.92;60.76
15314;BME280;7757;52.626;4.746;2023-03-20T01:35:56;101758.56;;;15.89;61.00
15314;BME280;7757;52.626;4.746;2023-03-20T01:38:42;101752.16;;;15.90;60.83
15314;BME280;7757;52.626;4.746;2023-03-20T01:41:29;101747.78;;;15.89;61.28
15314;BME280;7757;52.626;4.746;2023-03-20T01:44:19;101728.44;;;15.86;61.06
15314;BME280;7757;52.626;4.746;2023-03-20T01:47:13;101720.78;;;15.89;60.63
15314;BME280;7757;52.626;4.746;2023-03-20T01:50:19;101726.19;;;15.89;60.27
15314;BME280;7757;52.626;4.746;2023-03-20T01:53:11;101737.81;;;15.90;60.86
15314;BME280;7757;52.626;4.746;2023-03-20T01:55:59;101715.19;;;15.84;60.37
15314;BME280;7757;52.626;4.746;2023-03-20T01:58:48;101717.47;;;15.87;60.89
15314;BME280;7757;52.626;4.746;2023-03-20T02:01:35;101713.50;;;15.83;60.97
15314;BME280;7757;52.626;4.746;2023-03-20T02:04:23;101714.56;;;15.89;60.20
15314;BME280;7757;52.626;4.746;2023-03-20T02:07:10;101705.84;;;15.87;60.98
15314;BME280;7757;52.626;4.746;2023-03-20T02:09:57;101702.13;;;15.88;60.71
15314;BME280;7757;52.626;4.746;2023-03-20T02:12:44;101691.53;;;15.86;60.85
15314;BME280;7757;52.626;4.746;2023-03-20T02:15:32;101686.97;;;15.87;60.26
15314;BME280;7757;52.626;4.746;2023-03-20T02:18:18;101683.44;;;15.86;60.36
15314;BME280;7757;52.626;4.746;2023-03-20T02:24:44;101654.78;;;15.79;60.72
15314;BME280;7757;52.626;4.746;2023-03-20T02:27:42;101663.91;;;15.84;60.13
15314;BME280;7757;52.626;4.746;2023-03-20T02:30:57;101668.69;;;15.82;61.04
15314;BME280;7757;52.626;4.746;2023-03-20T02:34:04;101656.41;;;15.80;60.36
15314;BME280;7757;52.626;4.746;2023-03-20T02:37:20;101656.84;;;15.83;60.45
15314;BME280;7757;52.626;4.746;2023-03-20T02:40:14;101660.78;;;15.81;60.36
15314;BME280;7757;52.626;4.746;2023-03-20T02:43:06;101659.75;;;15.82;60.97
15314;BME280;7757;52.626;4.746;2023-03-20T02:46:02;101664.09;;;15.83;60.95
15314;BME280;7757;52.626;4.746;2023-03-20T02:48:53;101658.31;;;15.79;60.29
15314;BME280;7757;52.626;4.746;2023-03-20T02:51:46;101656.41;;;15.80;61.13
15314;BME280;7757;52.626;4.746;2023-03-20T02:54:38;101650.22;;;15.79;60.41
15314;BME280;7757;52.626;4.746;2023-03-20T02:57:35;101638.38;;;15.80;61.08
15314;BME280;7757;52.626;4.746;2023-03-20T03:00:28;101618.59;;;15.67;61.00
15314;BME280;7757;52.626;4.746;2023-03-20T03:03:19;101636.47;;;15.74;60.52
15314;BME280;7757;52.626;4.746;2023-03-20T03:06:10;101648.31;;;15.80;61.10
15314;BME280;7757;52.626;4.746;2023-03-20T03:09:02;101648.72;;;15.77;60.02
15314;BME280;7757;52.626;4.746;2023-03-20T03:11:55;101647.69;;;15.78;60.36
15314;BME280;7757;52.626;4.746;2023-03-20T03:14:44;101647.06;;;15.76;60.50
15314;BME280;7757;52.626;4.746;2023-03-20T03:17:35;101642.53;;;15.76;60.13
15314;BME280;7757;52.626;4.746;2023-03-20T03:20:24;101625.69;;;15.74;60.42
15314;BME280;7757;52.626;4.746;2023-03-20T03:23:18;101610.13;;;15.70;61.21
15314;BME280;7757;52.626;4.746;2023-03-20T03:26:06;101621.97;;;15.75;60.63
15314;BME280;7757;52.626;4.746;2023-03-20T03:28:55;101608.66;;;15.74;60.18
15314;BME280;7757;52.626;4.746;2023-03-20T03:31:42;101608.47;;;15.75;60.46
15314;BME280;7757;52.626;4.746;2023-03-20T03:34:28;101605.34;;;15.72;60.36
15314;BME280;7757;52.626;4.746;2023-03-20T03:37:20;101604.31;;;15.73;60.67
15314;BME280;7757;52.626;4.746;2023-03-20T03:40:15;101612.19;;;15.74;60.66
15314;BME280;7757;52.626;4.746;2023-03-20T03:43:06;101609.28;;;15.69;60.36
15314;BME280;7757;52.626;4.746;2023-03-20T03:45:58;101604.28;;;15.66;60.68
15314;BME280;7757;52.626;4.746;2023-03-20T03:48:47;101612.59;;;15.71;60.65
15314;BME280;7757;52.626;4.746;2023-03-20T03:51:36;101617.16;;;15.71;60.21
15314;BME280;7757;52.626;4.746;2023-03-20T03:54:26;101607.59;;;15.68;60.67
15314;BME280;7757;52.626;4.746;2023-03-20T03:57:16;101595.75;;;15.62;60.66
15314;BME280;7757;52.626;4.746;2023-03-20T04:00:06;101608.66;;;15.67;61.14
15314;BME280;7757;52.626;4.746;2023-03-20T04:02:57;101605.75;;;15.69;61.32
15314;BME280;7757;52.626;4.746;2023-03-20T04:05:43;101610.13;;;15.70;60.52
15314;BME280;7757;52.626;4.746;2023-03-20T04:08:30;101606.81;;;15.68;60.86
15314;BME280;7757;52.626;4.746;2023-03-20T04:11:16;101614.69;;;15.69;60.95
15314;BME280;7757;52.626;4.746;2023-03-20T04:14:02;101619.22;;;15.69;60.38
15314;BME280;7757;52.626;4.746;2023-03-20T04:16:48;101614.22;;;15.66;60.87
15314;BME280;7757;52.626;4.746;2023-03-20T04:19:34;101606.53;;;15.62;60.72
15314;BME280;7757;52.626;4.746;2023-03-20T04:22:19;101608.84;;;15.66;60.86
15314;BME280;7757;52.626;4.746;2023-03-20T04:25:07;101601.16;;;15.62;60.27
15314;BME280;7757;52.626;4.746;2023-03-20T04:27:53;101591.81;;;15.58;61.00
15314;BME280;7757;52.626;4.746;2023-03-20T04:30:38;101594.13;;;15.61;60.55
15314;BME280;7757;52.626;4.746;2023-03-20T04:33:24;101582.09;;;15.64;60.96
15314;BME280;7757;52.626;4.746;2023-03-20T04:36:12;101586.03;;;15.61;60.75
15314;BME280;7757;52.626;4.746;2023-03-20T04:38:57;101588.91;;;15.60;61.18
15314;BME280;7757;52.626;4.746;2023-03-20T04:41:43;101577.72;;;15.63;60.67
15314;BME280;7757;52.626;4.746;2023-03-20T04:44:29;101579.59;;;15.62;61.11
15314;BME280;7757;52.626;4.746;2023-03-20T04:47:14;101581.44;;;15.62;60.42
15314;BME280;7757;52.626;4.746;2023-03-20T04:49:59;101576.66;;;15.57;60.94
15314;BME280;7757;52.626;4.746;2023-03-20T04:52:46;101576.44;;;15.59;60.28
15314;BME280;7757;52.626;4.746;2023-03-20T04:55:31;101581.44;;;15.62;60.58
15314;BME280;7757;52.626;4.746;2023-03-20T04:58:19;101578.53;;;15.57;60.46
15314;BME280;7757;52.626;4.746;2023-03-20T05:01:05;101582.50;;;15.61;60.38
15314;BME280;7757;52.626;4.746;2023-03-20T05:03:50;101578.13;;;15.60;60.08
15314;BME280;7757;52.626;4.746;2023-03-20T05:06:35;101582.50;;;15.61;61.24
15314;BME280;7757;52.626;4.746;2023-03-20T05:09:22;101574.56;;;15.53;61.38
15314;BME280;7757;52.626;4.746;2023-03-20T05:12:10;101561.03;;;15.46;60.70
15314;BME280;7757;52.626;4.746;2023-03-20T05:14:56;101579.13;;;15.59;61.32
15314;BME280;7757;52.626;4.746;2023-03-20T05:17:41;101561.50;;;15.50;60.39
15314;BME280;7757;52.626;4.746;2023-03-20T05:20:26;101563.75;;;15.53;60.17
15314;BME280;7757;52.626;4.746;2023-03-20T05:23:13;101575.19;;;15.55;61.13
15314;BME280;7757;52.626;4.746;2023-03-20T05:26:00;101566.28;;;15.54;60.14
15314;BME280;7757;52.626;4.746;2023-03-20T05:28:46;101565.25;;;15.55;60.29
15314;BME280;7757;52.626;4.746;2023-03-20T05:31:31;101562.97;;;15.52;61.13
15314;BME280;7757;52.626;4.746;2023-03-20T05:34:16;101568.75;;;15.56;60.65
15314;BME280;7757;52.626;4.746;2023-03-20T05:37:02;101574.38;;;15.54;61.23
15314;BME280;7757;52.626;4.746;2023-03-20T05:39:47;101570.00;;;15.53;60.62
15314;BME280;7757;52.626;4.746;2023-03-20T05:42:34;101573.94;;;15.51;60.42
15314;BME280;7757;52.626;4.746;2023-03-20T05:45:19;101568.75;;;15.49;60.94
15314;BME280;7757;52.626;4.746;2023-03-20T05:48:05;101564.38;;;15.48;60.68
15314;BME280;7757;52.626;4.746;2023-03-20T05:50:50;101579.94;;;15.53;60.94
15314;BME280;7757;52.626;4.746;2023-03-20T05:53:35;101582.44;;;15.54;60.60
15314;BME280;7757;52.626;4.746;2023-03-20T05:56:21;101577.25;;;15.53;60.61
15314;BME280;7757;52.626;4.746;2023-03-20T05:59:08;101573.75;;;15.52;60.93
15314;BME280;7757;52.626;4.746;2023-03-20T06:01:53;101581.84;;;15.52;61.07
15314;BME280;7757;52.626;4.746;2023-03-20T06:04:38;101575.38;;;15.53;60.82
15314;BME280;7757;52.626;4.746;2023-03-20T06:07:24;101578.91;;;15.54;61.13
15314;BME280;7757;52.626;4.746;2023-03-20T06:10:10;101576.22;;;15.54;60.74
15314;BME280;7757;52.626;4.746;2023-03-20T06:12:55;101579.94;;;15.53;60.08
15314;BME280;7757;52.626;4.746;2023-03-20T06:15:42;101573.09;;;15.50;60.63
15314;BME280;7757;52.626;4.746;2023-03-20T06:18:27;101574.56;;;15.53;60.83
15314;BME280;7757;52.626;4.746;2023-03-20T06:21:13;101582.44;;;15.54;60.38
15314;BME280;7757;52.626;4.746;2023-03-20T06:23:59;101577.06;;;15.54;60.69
15314;BME280;7757;52.626;4.746;2023-03-20T06:26:44;101579.75;;;15.54;60.35
15314;BME280;7757;52.626;4.746;2023-03-20T06:29:30;101576.84;;;15.56;59.76
15314;BME280;7757;52.626;4.746;2023-03-20T06:32:16;101566.91;;;15.50;60.49
15314;BME280;7757;52.626;4.746;2023-03-20T06:35:02;101581.22;;;15.57;60.12
15314;BME280;7757;52.626;4.746;2023-03-20T06:37:48;101589.31;;;15.57;60.47
15314;BME280;7757;52.626;4.746;2023-03-20T06:40:34;101589.53;;;15.55;60.44
15314;BME280;7757;52.626;4.746;2023-03-20T06:43:19;101593.84;;;15.56;60.33
15314;BME280;7757;52.626;4.746;2023-03-20T06:46:05;101587.63;;;15.56;59.87
15314;BME280;7757;52.626;4.746;2023-03-20T06:48:52;101582.44;;;15.54;60.31
15314;BME280;7757;52.626;4.746;2023-03-20T06:51:37;101592.22;;;15.55;60.06
15314;BME280;7757;52.626;4.746;2023-03-20T06:54:22;101579.31;;;15.51;60.73
15314;BME280;7757;52.626;4.746;2023-03-20T06:57:08;101579.22;;;15.72;60.82
15314;BME280;7757;52.626;4.746;2023-03-20T06:59:53;101595.28;;;15.93;60.69
15314;BME280;7757;52.626;4.746;2023-03-20T07:02:39;101588.41;;;15.97;60.76
15314;BME280;7757;52.626;4.746;2023-03-20T07:05:26;101598.00;;;16.06;60.53
15314;BME280;7757;52.626;4.746;2023-03-20T07:08:11;101599.25;;;16.10;61.02
15314;BME280;7757;52.626;4.746;2023-03-20T07:10:58;101591.81;;;16.19;61.89
15314;BME280;7757;52.626;4.746;2023-03-20T07:13:43;101601.38;;;16.28;61.13
15314;BME280;7757;52.626;4.746;2023-03-20T07:16:28;101592.47;;;16.34;61.33
15314;BME280;7757;52.626;4.746;2023-03-20T07:19:15;101596.44;;;16.38;61.34
15314;BME280;7757;52.626;4.746;2023-03-20T07:22:05;101595.19;;;16.41;61.74
15314;BME280;7757;52.626;4.746;2023-03-20T07:24:50;101581.06;;;16.45;61.27
15314;BME280;7757;52.626;4.746;2023-03-20T07:27:36;101589.34;;;16.50;60.87
15314;BME280;7757;52.626;4.746;2023-03-20T07:30:21;101593.97;;;16.56;61.09
15314;BME280;7757;52.626;4.746;2023-03-20T07:33:07;101600.22;;;16.70;61.33
15314;BME280;7757;52.626;4.746;2023-03-20T07:35:53;101600.00;;;16.78;60.60
15314;BME280;7757;52.626;4.746;2023-03-20T07:38:40;101602.31;;;16.81;60.25
15314;BME280;7757;52.626;4.746;2023-03-20T07:41:25;101601.28;;;16.82;61.01
15314;BME280;7757;52.626;4.746;2023-03-20T07:44:11;101598.56;;;16.82;61.06
15314;BME280;7757;52.626;4.746;2023-03-20T07:46:57;101600.03;;;16.91;60.02
15314;BME280;7757;52.626;4.746;2023-03-20T07:49:42;101600.03;;;16.91;60.15
15314;BME280;7757;52.626;4.746;2023-03-20T07:52:28;101597.09;;;16.99;60.46
15314;BME280;7757;52.626;4.746;2023-03-20T07:55:15;101607.91;;;17.06;60.13
15314;BME280;7757;52.626;4.746;2023-03-20T07:58:00;101597.72;;;17.08;59.72
15314;BME280;7757;52.626;4.746;2023-03-20T08:00:46;101601.66;;;17.12;60.05
15314;BME280;7757;52.626;4.746;2023-03-20T08:03:31;101610.16;;;17.15;59.46
15314;BME280;7757;52.626;4.746;2023-03-20T08:06:17;101610.59;;;17.19;59.55
15314;BME280;7757;52.626;4.746;2023-03-20T08:09:02;101609.53;;;17.26;59.22
15314;BME280;7757;52.626;4.746;2023-03-20T08:11:49;101600.19;;;17.29;59.04
15314;BME280;7757;52.626;4.746;2023-03-20T08:14:34;101603.47;;;17.44;58.00
15314;BME280;7757;52.626;4.746;2023-03-20T08:17:21;101608.16;;;17.81;57.49
15314;BME280;7757;52.626;4.746;2023-03-20T08:20:07;101614.09;;;18.03;56.57
15314;BME280;7757;52.626;4.746;2023-03-20T08:22:53;101612.16;;;18.17;56.29
15314;BME280;7757;52.626;4.746;2023-03-20T08:25:39;101615.44;;;18.25;55.93
15314;BME280;7757;52.626;4.746;2023-03-20T08:28:26;101616.97;;;18.53;55.79
15314;BME280;7757;52.626;4.746;2023-03-20T08:31:12;101611.31;;;18.54;55.87
15314;BME280;7757;52.626;4.746;2023-03-20T08:33:57;101617.63;;;18.73;55.72
15314;BME280;7757;52.626;4.746;2023-03-20T08:36:43;101618.94;;;18.95;55.90
15314;BME280;7757;52.626;4.746;2023-03-20T08:39:28;101603.22;;;19.04;55.33
15314;BME280;7757;52.626;4.746;2023-03-20T08:42:14;101611.44;;;19.15;55.36
15314;BME280;7757;52.626;4.746;2023-03-20T08:45:00;101612.97;;;19.29;55.07
15314;BME280;7757;52.626;4.746;2023-03-20T08:47:46;101609.31;;;19.42;55.21
15314;BME280;7757;52.626;4.746;2023-03-20T08:50:32;101603.78;;;19.48;54.49
15314;BME280;7757;52.626;4.746;2023-03-20T08:53:17;101607.81;;;19.64;54.42
15314;BME280;7757;52.626;4.746;2023-03-20T08:56:03;101609.09;;;19.62;54.71
15314;BME280;7757;52.626;4.746;2023-03-20T08:58:48;101606.38;;;19.62;54.88
15314;BME280;7757;52.626;4.746;2023-03-20T09:01:37;101603.06;;;19.78;54.07
15314;BME280;7757;52.626;4.746;2023-03-20T09:04:23;101594.59;;;19.86;53.81
15314;BME280;7757;52.626;4.746;2023-03-20T09:07:08;101599.84;;;19.99;54.04
15314;BME280;7757;52.626;4.746;2023-03-20T09:09:54;101583.03;;;19.90;54.06
15314;BME280;7757;52.626;4.746;2023-03-20T09:12:39;101601.38;;;19.95;54.12
15314;BME280;7757;52.626;4.746;2023-03-20T09:15:25;101601.13;;;19.96;54.53
15314;BME280;7757;52.626;4.746;2023-03-20T09:18:12;101597.03;;;20.05;54.16
15314;BME280;7757;52.626;4.746;2023-03-20T09:20:58;101600.03;;;20.16;53.71
15314;BME280;7757;52.626;4.746;2023-03-20T09:23:44;101597.34;;;20.16;53.78
15314;BME280;7757;52.626;4.746;2023-03-20T09:26:30;101606.63;;;20.08;53.59
15314;BME280;7757;52.626;4.746;2023-03-20T09:29:16;101614.56;;;20.10;53.88
15314;BME280;7757;52.626;4.746;2023-03-20T09:32:01;101601.94;;;20.15;54.28
15314;BME280;7757;52.626;4.746;2023-03-20T09:34:48;101597.78;;;20.13;54.53
15314;BME280;7757;52.626;4.746;2023-03-20T09:37:34;101608.91;;;20.23;54.92
15314;BME280;7757;52.626;4.746;2023-03-20T09:40:23;101602.84;;;20.27;54.31
15314;BME280;7757;52.626;4.746;2023-03-20T09:46:28;101602.78;;;20.45;54.25
15314;BME280;7757;52.626;4.746;2023-03-20T09:49:25;101600.91;;;20.46;54.38
15314;BME280;7757;52.626;4.746;2023-03-20T09:52:21;101598.97;;;20.46;54.29
15314;BME280;7757;52.626;4.746;2023-03-20T09:55:12;101595.94;;;20.43;54.64
15314;BME280;7757;52.626;4.746;2023-03-20T09:58:03;101605.13;;;20.42;54.67
15314;BME280;7757;52.626;4.746;2023-03-20T10:00:55;101602.41;;;20.42;54.43
15314;BME280;7757;52.626;4.746;2023-03-20T10:03:43;101584.69;;;20.39;54.48
15314;BME280;7757;52.626;4.746;2023-03-20T10:06:33;101587.16;;;20.41;54.50
15314;BME280;7757;52.626;4.746;2023-03-20T10:09:23;101594.63;;;20.45;54.21
15314;BME280;7757;52.626;4.746;2023-03-20T10:12:23;101589.41;;;20.44;54.69
15314;BME280;7757;52.626;4.746;2023-03-20T10:15:18;101579.16;;;20.46;54.95
15314;BME280;7757;52.626;4.746;2023-03-20T10:18:15;101587.19;;;20.52;54.23
15314;BME280;7757;52.626;4.746;2023-03-20T10:21:04;101589.59;;;20.61;54.61
15314;BME280;7757;52.626;4.746;2023-03-20T10:23:57;101595.03;;;20.61;54.66
15314;BME280;7757;52.626;4.746;2023-03-20T10:26:49;101599.16;;;20.63;54.60
15314;BME280;7757;52.626;4.746;2023-03-20T10:29:44;101592.06;;;20.62;54.56
15314;BME280;7757;52.626;4.746;2023-03-20T10:32:37;101590.38;;;20.61;54.33
15314;BME280;7757;52.626;4.746;2023-03-20T10:35:32;101591.38;;;20.67;54.32
15314;BME280;7757;52.626;4.746;2023-03-20T10:38:28;101572.56;;;20.65;53.64
15314;BME280;7757;52.626;4.746;2023-03-20T10:41:17;101576.59;;;20.63;53.03
15314;BME280;7757;52.626;4.746;2023-03-20T10:44:09;101567.31;;;20.52;53.07
15314;BME280;7757;52.626;4.746;2023-03-20T10:47:00;101585.06;;;20.43;53.02
15314;BME280;7757;52.626;4.746;2023-03-20T10:49:51;101557.75;;;20.20;53.54
15314;BME280;7757;52.626;4.746;2023-03-20T10:52:39;101585.38;;;20.35;53.14
15314;BME280;7757;52.626;4.746;2023-03-20T10:55:28;101570.16;;;20.45;52.71
15314;BME280;7757;52.626;4.746;2023-03-20T10:58:18;101585.75;;;20.50;52.86
15314;BME280;7757;52.626;4.746;2023-03-20T11:01:07;101578.53;;;20.44;52.50
15314;BME280;7757;52.626;4.746;2023-03-20T11:03:53;101572.19;;;20.50;52.87
15314;BME280;7757;52.626;4.746;2023-03-20T11:06:43;101571.47;;;20.43;52.37
15314;BME280;7757;52.626;4.746;2023-03-20T11:09:30;101579.72;;;20.36;52.74
15314;BME280;7757;52.626;4.746;2023-03-20T11:12:16;101583.94;;;20.32;53.05
15314;BME280;7757;52.626;4.746;2023-03-20T11:15:14;101574.38;;;20.30;52.69
15314;BME280;7757;52.626;4.746;2023-03-20T11:18:04;101563.72;;;20.28;53.18
15314;BME280;7757;52.626;4.746;2023-03-20T11:20:52;101565.22;;;20.24;52.66
15314;BME280;7757;52.626;4.746;2023-03-20T11:23:38;101573.06;;;20.32;52.91
15314;BME280;7757;52.626;4.746;2023-03-20T11:26:33;101568.63;;;20.20;52.35
15314;BME280;7757;52.626;4.746;2023-03-20T11:29:22;101568.41;;;20.21;52.66
15314;BME280;7757;52.626;4.746;2023-03-20T11:32:19;101566.44;;;20.28;52.77
15314;BME280;7757;52.626;4.746;2023-03-20T11:35:19;101561.25;;;20.27;52.54
15314;BME280;7757;52.626;4.746;2023-03-20T11:38:11;101555.19;;;20.25;52.58
15314;BME280;7757;52.626;4.746;2023-03-20T11:40:57;101560.84;;;20.23;52.69
15314;BME280;7757;52.626;4.746;2023-03-20T11:43:43;101566.06;;;20.25;52.37
15314;BME280;7757;52.626;4.746;2023-03-20T11:46:28;101554.47;;;20.18;52.76
15314;BME280;7757;52.626;4.746;2023-03-20T11:49:20;101560.94;;;20.17;52.49
15314;BME280;7757;52.626;4.746;2023-03-20T11:52:12;101552.00;;;20.16;52.66
15314;BME280;7757;52.626;4.746;2023-03-20T11:55:00;101560.44;;;20.08;52.51
15314;BME280;7757;52.626;4.746;2023-03-20T11:57:46;101547.22;;;20.12;52.10
15314;BME280;7757;52.626;4.746;2023-03-20T12:00:35;101559.28;;;20.04;52.63
15314;BME280;7757;52.626;4.746;2023-03-20T12:03:41;101560.41;;;19.96;52.91
15314;BME280;7757;52.626;4.746;2023-03-20T12:06:38;101565.84;;;19.96;53.01
15314;BME280;7757;52.626;4.746;2023-03-20T12:09:32;101559.69;;;19.89;52.86
15314;BME280;7757;52.626;4.746;2023-03-20T12:12:30;101555.81;;;19.97;53.05
15314;BME280;7757;52.626;4.746;2023-03-20T12:15:22;101569.63;;;19.95;52.57
15314;BME280;7757;52.626;4.746;2023-03-20T12:18:11;101551.88;;;19.93;52.57
15314;BME280;7757;52.626;4.746;2023-03-20T12:21:06;101553.34;;;19.95;52.54
15314;BME280;7757;52.626;4.746;2023-03-20T12:23:57;101556.00;;;19.84;53.05
15314;BME280;7757;52.626;4.746;2023-03-20T12:26:50;101552.44;;;19.83;53.93
15314;BME280;7757;52.626;4.746;2023-03-20T12:29:42;101542.09;;;19.92;53.54
15314;BME280;7757;52.626;4.746;2023-03-20T12:32:34;101532.38;;;19.84;53.71
15314;BME280;7757;52.626;4.746;2023-03-20T12:35:26;101541.78;;;20.00;53.72
15314;BME280;7757;52.626;4.746;2023-03-20T12:38:19;101550.38;;;19.97;54.10
15314;BME280;7757;52.626;4.746;2023-03-20T12:41:12;101535.25;;;19.89;54.20
15314;BME280;7757;52.626;4.746;2023-03-20T12:44:21;101539.56;;;20.09;53.69
15314;BME280;7757;52.626;4.746;2023-03-20T12:47:43;101534.13;;;20.09;53.38
15314;BME280;7757;52.626;4.746;2023-03-20T12:50:34;101531.16;;;19.98;53.19
15314;BME280;7757;52.626;4.746;2023-03-20T12:53:31;101530.06;;;19.99;53.46
15314;BME280;7757;52.626;4.746;2023-03-20T12:56:29;101523.78;;;19.87;53.25
15314;BME280;7757;52.626;4.746;2023-03-20T12:59:25;101520.25;;;19.87;53.20
15314;BME280;7757;52.626;4.746;2023-03-20T13:02:26;101521.28;;;19.86;53.24
15314;BME280;7757;52.626;4.746;2023-03-20T13:05:24;101516.25;;;19.89;53.35
15314;BME280;7757;52.626;4.746;2023-03-20T13:08:28;101515.41;;;19.89;53.22
15314;BME280;7757;52.626;4.746;2023-03-20T13:11:25;101513.38;;;19.84;53.61
15314;BME280;7757;52.626;4.746;2023-03-20T13:14:20;101507.34;;;19.82;53.89
15314;BME280;7757;52.626;4.746;2023-03-20T13:17:15;101506.06;;;19.85;53.54
15314;BME280;7757;52.626;4.746;2023-03-20T13:20:20;101502.00;;;19.76;53.54
15314;BME280;7757;52.626;4.746;2023-03-20T13:23:11;101509.47;;;19.80;53.71
15314;BME280;7757;52.626;4.746;2023-03-20T13:26:10;101508.25;;;19.76;53.34
15314;BME280;7757;52.626;4.746;2023-03-20T13:29:05;101507.31;;;19.71;53.51
15314;BME280;7757;52.626;4.746;2023-03-20T13:32:02;101510.16;;;19.76;53.14
15314;BME280;7757;52.626;4.746;2023-03-20T13:35:06;101506.47;;;19.70;53.63
15314;BME280;7757;52.626;4.746;2023-03-20T13:37:59;101502.25;;;19.74;53.67
15314;BME280;7757;52.626;4.746;2023-03-20T13:40:46;101512.31;;;19.56;54.27
15314;BME280;7757;52.626;4.746;2023-03-20T13:43:39;101513.19;;;19.68;53.90
15314;BME280;7757;52.626;4.746;2023-03-20T13:46:32;101513.66;;;19.65;53.74
15314;BME280;7757;52.626;4.746;2023-03-20T13:49:24;101508.22;;;19.65;54.15
15314;BME280;7757;52.626;4.746;2023-03-20T13:52:14;101505.59;;;19.58;54.28
15314;BME280;7757;52.626;4.746;2023-03-20T13:55:16;101507.47;;;19.58;53.99
15314;BME280;7757;52.626;4.746;2023-03-20T13:58:18;101509.59;;;19.56;54.33
15314;BME280;7757;52.626;4.746;2023-03-20T14:01:11;101496.94;;;19.49;54.52
15314;BME280;7757;52.626;4.746;2023-03-20T14:04:01;101506.50;;;19.52;54.30
15314;BME280;7757;52.626;4.746;2023-03-20T14:06:53;101509.91;;;19.47;54.27
15314;BME280;7757;52.626;4.746;2023-03-20T14:09:39;101499.28;;;19.46;54.19
15314;BME280;7757;52.626;4.746;2023-03-20T14:12:26;101495.75;;;19.45;54.57
15314;BME280;7757;52.626;4.746;2023-03-20T14:15:18;101498.31;;;19.40;54.54
15314;BME280;7757;52.626;4.746;2023-03-20T14:18:05;101494.28;;;19.43;54.59
15314;BME280;7757;52.626;4.746;2023-03-20T14:20:53;101500.19;;;19.40;54.83
15314;BME280;7757;52.626;4.746;2023-03-20T14:23:43;101501.63;;;19.42;54.79
15314;BME280;7757;52.626;4.746;2023-03-20T14:26:35;101491.59;;;19.43;54.89
15314;BME280;7757;52.626;4.746;2023-03-20T14:29:32;101492.88;;;19.40;54.94
15314;BME280;7757;52.626;4.746;2023-03-20T14:32:22;101472.75;;;19.30;55.22
15314;BME280;7757;52.626;4.746;2023-03-20T14:35:22;101494.97;;;19.38;54.83
15314;BME280;7757;52.626;4.746;2023-03-20T14:38:19;101470.25;;;19.28;54.77
15314;BME280;7757;52.626;4.746;2023-03-20T14:41:13;101472.13;;;19.28;54.84
15314;BME280;7757;52.626;4.746;2023-03-20T14:44:11;101486.91;;;19.32;55.01
15314;BME280;7757;52.626;4.746;2023-03-20T14:47:04;101477.03;;;19.37;55.18
15314;BME280;7757;52.626;4.746;2023-03-20T14:49:56;101478.31;;;19.53;55.25
15314;BME280;7757;52.626;4.746;2023-03-20T14:52:52;101472.34;;;19.63;55.12
15314;BME280;7757;52.626;4.746;2023-03-20T14:55:50;101478.16;;;19.66;54.97
15314;BME280;7757;52.626;4.746;2023-03-20T14:58:46;101473.81;;;19.47;55.67
15314;BME280;7757;52.626;4.746;2023-03-20T15:01:47;101475.00;;;19.15;55.29
15314;BME280;7757;52.626;4.746;2023-03-20T15:04:39;101475.09;;;19.08;55.54